Lake Wenatchee to Mission Ridge
Mission Ridge Ski Area
Latest observation 09/03 18:00 PDT
| Time (PDT) | Temp °F 6730' | Temp °F 5160' | Temp °F 4610' | RH % 6730' | RH % 5160' | Min mph 6730' | Spd mph 6730' | Gust mph 6730' | Dir ° 6730' | Pcp1 5160' | PcpSum in 5160' | 24Sno 5160' | SnoHt 5160' |
|---|---|---|---|---|---|---|---|---|---|---|---|---|---|
| 09/03 18:00 | 36 | – | 46 | 87 | – | 0 | 5 | 11 | 175 | – | – | – | – |
| 09/03 17:00 | 40 | – | 50 | 71 | – | 0 | 5 | 14 | 229 | – | – | – | – |
| 09/03 16:00 | 41 | – | 52 | 72 | – | 0 | 7 | 18 | 3 | – | – | – | – |
| 09/03 15:00 | 40 | – | 51 | 80 | – | 0 | 6 | 18 | 2 | – | – | – | – |
| 09/03 14:00 | 42 | – | 50 | 76 | – | 0 | 6 | 14 | 280 | – | – | – | – |
| 09/03 13:00 | 41 | – | 51 | 65 | – | 4 | 11 | 21 | 230 | – | – | – | – |
| 09/03 12:00 | 40 | – | 47 | 76 | – | 4 | 10 | 16 | 228 | – | – | – | – |
| 09/03 11:00 | 38 | – | 46 | 73 | – | 4 | 8 | 13 | 232 | – | – | – | – |
| 09/03 10:00 | 36 | – | 46 | 76 | – | 4 | 6 | 10 | 228 | – | – | – | – |
| 09/03 09:00 | 35 | – | 47 | 84 | – | 0 | 9 | 16 | 253 | – | – | – | – |
| 09/03 08:00 | 34 | – | 43 | 79 | – | 6 | 9 | 15 | 252 | – | – | – | – |
| 09/03 07:00 | 32 | – | 39 | 95 | – | 6 | 11 | 15 | 256 | – | – | – | – |
| 09/03 06:00 | 32 | – | 38 | 85 | – | 6 | 10 | 16 | 261 | – | – | – | – |
| 09/03 05:00 | 33 | – | 38 | 84 | – | 6 | 9 | 12 | 299 | – | – | – | – |
| 09/03 04:00 | 32 | – | 39 | 100 | – | 4 | 9 | 17 | 298 | – | – | – | – |
| 09/03 03:00 | 32 | – | 40 | 100 | – | 3 | 9 | 15 | 281 | – | – | – | – |
| 09/03 02:00 | 34 | – | 43 | 100 | – | 0 | 6 | 14 | 279 | – | – | – | – |
| 09/03 01:00 | 35 | – | 43 | 100 | – | 5 | 12 | 21 | 248 | – | – | – | – |
| 09/03 00:00 | 36 | – | 44 | 100 | – | 9 | 18 | 26 | 244 | – | – | – | – |
| 09/02 23:00 | 38 | – | 46 | 100 | – | 13 | 22 | 34 | 236 | – | – | – | – |
| 09/02 22:00 | 38 | – | 47 | 100 | – | 20 | 27 | 34 | 228 | – | – | – | – |
| 09/02 21:00 | 38 | – | 46 | 100 | – | 18 | 27 | 37 | 229 | – | – | – | – |
| 09/02 20:00 | 38 | – | 46 | 100 | – | 21 | 28 | 39 | 227 | – | – | – | – |
| 09/02 19:00 | 37 | – | 46 | 100 | – | 22 | 34 | 47 | 227 | – | – | – | – |

